• Join FlightAware (Why Join?)
  • Login
  • US Flag 
06:06AM EDT


 

Airport Tracker/Info


-or-


 

Live Flight TrackerFlight Track Log ✈ SWA738 ✈ 29-Aug-2013 ✈ KAUS - KMDW

Flight Track Log - Related Links

Times and Time Zones

All times are in EDT time to prevent confusion due to time zone crossing. See the SWA738 flight status page for this flight to view local times or setup timezone preferences in your user account.

Time Position Orientation Groundspeed Altitude Reporting Facility
EDT Latitude Longitude Course Direction KTS MPH feet Rate Location/Type
02:50PM 30.1492 -97.7711 32° Northeast 260 299 5,700  Level Houston Center
02:51PM 30.1967 -97.8464 306° West 281 323 9,200 2,940 Climbing Houston Center
02:52PM 30.2819 -97.8956 334° Northwest 320 368 11,800 1,440 Climbing Houston Center
02:53PM 30.3836 -97.9217 348° North 349 402 12,300 1,440 Climbing Houston Center
02:54PM 30.7720 -97.2515 32° Northeast  Level Estimated
02:54PM 30.4847 -97.9489 347° North 363 418 14,900  Level Houston Center
02:55PM 30.8681 -97.1813 32° Northeast  Level Estimated
02:55PM 30.5892 -97.9775 347° North 374 430 17,600  Level Houston Center
02:56PM 30.6978 -98.0089 346° North 390 449 19,800 2,100 Climbing Houston Center
02:57PM 30.8114 -98.0394 347° North 406 467 22,000 1,980 Climbing Houston Center
02:58PM 30.9281 -98.0717 347° North 419 482 23,900 1,620 Climbing Houston Center
02:59PM 31.0497 -98.0617 North 448 516 25,400 1,500 Climbing Houston Center
03:00PM 31.1303 -98.0272 20° North 436 502 26,500 1,620 Climbing Fort Worth Center
03:01PM 31.2494 -97.9722 22° Northeast 449 517 28,100 1,560 Climbing Fort Worth Center
03:02PM 31.3814 -97.9072 23° Northeast 455 524 29,700 1,800 Climbing Fort Worth Center
03:03PM 31.5069 -97.8494 21° North 460 529 31,700 2,040 Climbing Fort Worth Center
03:04PM 31.6261 -97.7917 22° Northeast 460 529 33,800 1,800 Climbing Fort Worth Center
03:05PM 31.7328 -97.7286 27° Northeast 449 517 35,300 1,380 Climbing Fort Worth Center
03:06PM 31.8372 -97.6506 32° Northeast 442 509 36,600 840 Climbing Fort Worth Center
03:07PM 31.9439 -97.5700 33° Northeast 442 509 37,000 180 Climbing Fort Worth Center
03:08PM 32.0442 -97.4942 33° Northeast 436 502 37,000  Level Fort Worth Center
03:09PM 32.1486 -97.4133 33° Northeast 436 502 37,000  Level Fort Worth Center
03:10PM 32.2508 -97.3322 34° Northeast 436 502 37,000  Level Fort Worth Center
03:11PM 32.3553 -97.2561 32° Northeast 436 502 37,000  Level Fort Worth Center
03:12PM 32.4617 -97.1722 34° Northeast 436 502 37,000  Level Fort Worth Center
03:13PM 32.5636 -97.0931 33° Northeast 436 502 37,000  Level Fort Worth Center
03:14PM 32.6700 -97.0086 34° Northeast 436 502 37,000  Level Fort Worth Center
03:15PM 32.7678 -96.9367 32° Northeast 442 509 37,000  Level Fort Worth Center
03:16PM 32.8717 -96.8544 34° Northeast 447 514 37,000  Level Fort Worth Center
03:17PM 32.9800 -96.7719 33° Northeast 454 522 37,000  Level Fort Worth Center
03:18PM 33.0839 -96.6919 33° Northeast 454 522 37,000  Level Fort Worth Center
03:19PM 33.1900 -96.6117 32° Northeast 454 522 37,000  Level Fort Worth Center
03:20PM 33.2978 -96.5261 34° Northeast 454 522 37,000  Level Fort Worth Center
03:21PM 33.4058 -96.4431 33° Northeast 454 522 37,000  Level Fort Worth Center
03:22PM 33.5094 -96.3597 34° Northeast 454 522 37,000  Level Fort Worth Center
03:23PM 33.6172 -96.2761 33° Northeast 454 522 37,000  Level Fort Worth Center
03:24PM 33.7231 -96.1922 33° Northeast 454 522 37,000  Level Fort Worth Center
03:25PM 33.8286 -96.1108 33° Northeast 454 522 37,000  Level Fort Worth Center
03:26PM 33.9319 -96.0267 34° Northeast 454 522 37,000  Level Fort Worth Center
03:27PM 34.0394 -95.9397 34° Northeast 454 522 37,000  Level Fort Worth Center
03:28PM 34.1492 -95.8525 33° Northeast 443 510 37,000  Level Fort Worth Center
03:29PM 34.2544 -95.7678 34° Northeast 438 504 37,000  Level Fort Worth Center
03:30PM 34.3494 -95.6931 33° Northeast 444 511 37,000  Level Fort Worth Center
03:31PM 34.4567 -95.6053 34° Northeast 457 526 37,000  Level Fort Worth Center
03:32PM 34.5764 -95.5144 32° Northeast 457 526 37,000  Level Fort Worth Center
03:33PM 34.7483 -95.3664 35° Northeast 464 534 37,000  Level Memphis Center
03:34PM 34.8536 -95.2842 33° Northeast 459 528 37,000  Level Memphis Center
03:35PM 34.9592 -95.1992 33° Northeast 459 528 37,000  Level Memphis Center
03:36PM 35.0650 -95.1114 34° Northeast 459 528 37,000  Level Memphis Center
03:37PM 35.1703 -95.0258 34° Northeast 459 528 37,000  Level Memphis Center
03:38PM 35.2778 -94.9378 34° Northeast 459 528 37,000  Level Memphis Center
03:39PM 35.3833 -94.8467 35° Northeast 459 528 37,000  Level Memphis Center
03:40PM 35.4908 -94.7581 34° Northeast 459 528 37,000  Level Memphis Center
03:41PM 35.5983 -94.6694 34° Northeast 459 528 37,000  Level Memphis Center
03:42PM 35.7056 -94.5778 35° Northeast 459 528 37,000  Level Memphis Center
03:43PM 35.8128 -94.4886 34° Northeast 459 528 37,000  Level Memphis Center
03:44PM 35.9203 -94.3967 35° Northeast 459 528 37,000  Level Memphis Center
03:45PM 36.0272 -94.3069 34° Northeast 459 528 37,000  Level Memphis Center
03:46PM 36.1322 -94.2194 34° Northeast 459 528 37,000  Level Memphis Center
03:47PM 36.2394 -94.1242 36° Northeast 459 528 37,000  Level Memphis Center
03:48PM 36.3303 -94.0125 45° Northeast 459 528 37,000  Level Memphis Center
03:50PM 36.4517 -93.8500 47° Northeast 465 535 37,000  Level Kansas City Center
03:51PM 36.5408 -93.7303 47° Northeast 465 535 37,000  Level Kansas City Center
03:52PM 36.6297 -93.6119 47° Northeast 467 537 37,000  Level Kansas City Center
03:53PM 36.7183 -93.4939 47° Northeast 465 535 37,000  Level Kansas City Center
03:54PM 36.8069 -93.3767 47° Northeast 464 534 37,000  Level Kansas City Center
03:55PM 36.9086 -93.2378 48° Northeast 463 533 37,000  Level Kansas City Center
03:56PM 36.9964 -93.1194 47° Northeast 464 534 37,000  Level Kansas City Center
03:57PM 37.0850 -92.9994 47° Northeast 467 537 37,000  Level Kansas City Center
03:58PM 37.1728 -92.8786 48° Northeast 467 537 37,000  Level Kansas City Center
03:59PM 37.2603 -92.7597 47° Northeast 466 536 37,000  Level Kansas City Center
04:00PM 37.3653 -92.6144 48° Northeast 467 537 37,000  Level Kansas City Center
04:01PM 37.4528 -92.4906 48° Northeast 473 544 37,000  Level Kansas City Center
04:02PM 37.5383 -92.3703 48° Northeast 468 539 37,000  Level Kansas City Center
04:03PM 37.6247 -92.2497 48° Northeast 467 537 37,000  Level Kansas City Center
04:04PM 37.7097 -92.1322 48° Northeast 468 539 37,000  Level Kansas City Center
04:05PM 37.8139 -91.9858 48° Northeast 466 536 37,000  Level Kansas City Center
04:06PM 37.9006 -91.8644 48° Northeast 467 537 37,000  Level Kansas City Center
04:07PM 37.9872 -91.7428 48° Northeast 468 539 37,000  Level Kansas City Center
04:08PM 38.0728 -91.6208 48° Northeast 466 536 37,000  Level Kansas City Center
04:09PM 38.1589 -91.4983 48° Northeast 466 536 37,000  Level Kansas City Center
04:10PM 38.2436 -91.3756 49° Northeast 464 534 37,000  Level Kansas City Center
04:11PM 38.3306 -91.2528 48° Northeast 465 535 37,000  Level Kansas City Center
04:12PM 38.4336 -91.1058 48° Northeast 464 534 37,000  Level Kansas City Center
04:14PM 38.5203 -90.9861 47° Northeast 461 531 37,000  Level Kansas City Center
04:15PM 38.6361 -90.9192 24° Northeast 455 524 37,000  Level Kansas City Center
04:16PM 38.7536 -90.8569 22° Northeast 452 520 37,000 -60 Level Kansas City Center
04:17PM 38.8714 -90.7942 23° Northeast 453 521 36,900 -540 Descending Kansas City Center
04:18PM 38.9889 -90.7311 23° Northeast 454 522 35,900 -960 Descending Kansas City Center
04:19PM 39.1044 -90.6689 23° Northeast 450 518 35,000 -480 Descending Kansas City Center
04:20PM 39.2444 -90.5925 23° Northeast 452 520 35,000  Level Kansas City Center
04:21PM 39.3614 -90.5286 23° Northeast 455 524 35,000  Level Kansas City Center
04:22PM 39.4772 -90.4656 23° Northeast 453 521 35,000 -540 Level Kansas City Center
04:23PM 39.5903 -90.4028 23° Northeast 446 513 34,000 -1,020 Descending Kansas City Center
04:24PM 39.7031 -90.3411 23° Northeast 441 507 33,000 -840 Descending Kansas City Center
04:25PM 39.8206 -90.2736 24° Northeast 437 503 32,300 -840 Descending Kansas City Center
04:26PM 39.9331 -90.2128 23° Northeast 439 505 31,300 -660 Descending Kansas City Center
04:27PM 40.0433 -90.1514 23° Northeast 434 499 31,000 -180 Descending Kansas City Center
04:28PM 40.1742 -90.0775 23° Northeast 428 493 31,000  Level Kansas City Center
04:29PM 40.2831 -90.0169 23° Northeast 426 490 31,000 -300 Level Kansas City Center
04:30PM 40.3828 -89.9369 31° Northeast 429 494 30,400 -1,080 Descending Chicago Center
04:31PM 40.4767 -89.8069 46° Northeast 431 496 28,700 -2,580 Descending Chicago Center
04:32PM 40.5608 -89.6922 46° Northeast 438 504 25,100 -3,300 Descending Chicago Center
04:33PM 40.6500 -89.5739 45° Northeast 453 521 22,000 -2,880 Descending Chicago Center
04:34PM 40.7367 -89.4544 46° Northeast 448 516 19,200 -1,560 Descending Chicago Center
04:35PM 40.8197 -89.3406 46° Northeast 435 501 18,800 -720 Descending Chicago Center
04:36PM 40.9172 -89.2053 46° Northeast 424 488 17,700 -1,020 Descending Chicago Center
04:37PM 40.9906 -89.0864 51° Northeast 424 488 16,700 -960 Descending Chicago Center
04:38PM 41.0328 -88.9456 68° East 424 488 15,800 -1,260 Descending Chicago Center
04:39PM 41.0744 -88.8042 69° East 417 480 14,100 -1,860 Descending Chicago Center
04:40PM 41.1306 -88.6508 64° Northeast 380 437 12,000 -1,500 Descending Chicago Center
04:42PM 41.2139 -88.5817 32° Northeast 351 404 11,000 -780 Descending Chicago Center
04:43PM 41.2967 -88.5156 31° Northeast 348 400 10,400 -1,020 Descending Chicago Center
04:44PM 41.3697 -88.4575 31° Northeast 312 359 9,000 -1,800 Descending Chicago Center
04:45PM 41.4422 -88.4000 31° Northeast 304 350 6,800 -1,500 Descending Chicago Center
04:46PM 41.4992 -88.3272 44° Northeast 285 328 6,000 -660 Descending Chicago Center
04:47PM 41.5411 -88.2153 63° Northeast 279 321 5,500 -780 Descending Chicago Center
04:48PM 41.5758 -88.1239 63° Northeast 274 315 4,500 -780 Descending Chicago Center
04:49PM 41.6094 -88.0344 63° Northeast 270 311 4,000 -300 Descending Chicago Center
04:50PM 41.6397 -87.9533 63° Northeast 249 287 4,000 -420 Level Chicago Center
04:51PM 41.6781 -87.8875 52° Northeast 235 270 3,200 -900 Descending Chicago Center
04:52PM 41.7211 -87.8342 43° Northeast 221 254 2,200 -900 Descending Chicago Center
04:53PM 41.7517 -87.7958 43° Northeast 179 206 1,400 -360 Descending Chicago Center
04:54PM 41.7853 -87.7536 43° Northeast 148 170 1,500 660 Climbing Chicago Center
04:55PM 41.8339 -87.7411 11° North 206 237 2,800 720 Climbing Chicago Center
04:56PM 41.8222 -87.8211 259° West 228 262 3,000 60 Climbing Chicago Center
04:57PM 41.7944 -87.9036 246° West 239 275 3,000  Level Chicago Center
04:58PM 41.7361 -87.9678 219° Southwest 226 260 3,000  Level Chicago Center
04:59PM 41.6903 -87.9519 166° South 205 236 3,000 -120 Level Chicago Center
05:00PM 41.6881 -87.8894 93° East 191 220 2,800 -420 Descending Chicago Center
05:01PM 41.7175 -87.8350 54° Northeast 185 213 2,200 -660 Descending Chicago Center
05:02PM 41.7519 -87.7942 41° Northeast 177 204 1,500 -600 Descending Chicago Center
05:03PM 41.7853 -87.7533 42° Northeast 166 191 1,000 -540 Descending Chicago Center